Time;durP1;ratioP1;P1;durP2;ratioP2;P2;SDS_P1;SDS_P2;PMS_P1;PMS_P2;Temp;Humidity;BMP_temperature;BMP_pressure;BME280_temperature;BME280_humidity;BME280_pressure;Samples;Min_cycle;Max_cycle;Signal;HPM_P1;HPM_P2
2022/10/04 00:01:54;;;;;;;14.98;7.72;;;13.90;99.90;;;;;;5072660;28;20036;-82
2022/10/04 00:04:22;;;;;;;12.35;5.80;;;13.90;99.90;;;;;;5073724;28;20044;-82
2022/10/04 00:06:57;;;;;;;16.33;5.97;;;13.80;99.90;;;;;;5073246;28;20048;-82
2022/10/04 00:09:29;;;;;;;14.93;8.30;;;13.80;99.90;;;;;;5072785;28;20482;-82
2022/10/04 00:11:56;;;;;;;10.25;5.25;;;13.90;99.90;;;;;;5071346;28;20079;-82
2022/10/04 00:14:30;;;;;;;17.67;6.60;;;13.80;99.90;;;;;;5055951;28;20052;-82
2022/10/04 00:16:57;;;;;;;15.82;8.75;;;13.80;99.90;;;;;;5072562;28;20551;-82
2022/10/04 00:19:38;;;;;;;18.25;8.95;;;13.80;99.90;;;;;;5072746;28;20803;-82
2022/10/04 00:22:07;;;;;;;15.82;6.85;;;13.90;99.90;;;;;;5056384;28;20089;-82
2022/10/04 00:24:34;;;;;;;13.32;7.85;;;13.80;99.90;;;;;;5056338;28;20128;-82
2022/10/04 00:27:22;;;;;;;13.77;7.55;;;13.90;99.90;;;;;;5073112;28;20497;-82
2022/10/04 00:30:00;;;;;;;11.98;5.80;;;13.90;99.90;;;;;;5055580;28;20048;-82
2022/10/04 00:32:58;;;;;;;14.70;8.40;;;13.80;99.90;;;;;;5054911;28;20127;-82
2022/10/04 00:35:23;;;;;;;15.30;9.00;;;13.80;99.90;;;;;;5050580;28;20049;-82
2022/10/04 00:37:59;;;;;;;13.45;7.65;;;13.80;99.90;;;;;;5072504;28;20037;-82
2022/10/04 00:40:30;;;;;;;11.52;5.95;;;13.90;99.90;;;;;;5056514;28;20056;-82
2022/10/04 00:43:11;;;;;;;14.55;6.55;;;13.80;99.90;;;;;;5072508;28;20032;-82
2022/10/04 00:45:53;;;;;;;14.07;7.72;;;13.80;99.90;;;;;;5072387;28;20047;-82
2022/10/04 00:48:37;;;;;;;12.50;6.00;;;13.80;99.90;;;;;;5072403;28;20044;-82
2022/10/04 00:51:11;;;;;;;17.55;10.18;;;13.80;99.90;;;;;;5071382;28;20112;-82
2022/10/04 00:54:10;;;;;;;16.95;9.63;;;13.80;99.90;;;;;;5072227;28;20402;-82
2022/10/04 00:56:49;;;;;;;15.05;8.57;;;13.80;99.90;;;;;;5072995;28;20045;-82
2022/10/04 00:59:37;;;;;;;11.95;5.97;;;13.80;99.90;;;;;;5055553;28;20047;-82
2022/10/04 01:02:20;;;;;;;13.77;7.97;;;13.70;99.90;;;;;;5071576;28;20558;-82
2022/10/04 01:04:51;;;;;;;12.75;6.07;;;13.70;99.90;;;;;;5072286;28;20094;-82
2022/10/04 01:07:27;;;;;;;13.05;6.30;;;13.70;99.90;;;;;;5072239;28;20102;-82
2022/10/04 01:10:06;;;;;;;16.27;8.20;;;13.60;99.90;;;;;;5071799;28;20033;-82
2022/10/04 01:12:41;;;;;;;12.88;6.05;;;13.60;99.90;;;;;;5072036;28;20052;-82
2022/10/04 01:15:15;;;;;;;16.88;8.52;;;13.60;99.90;;;;;;5072054;28;20075;-82
2022/10/04 01:17:40;;;;;;;16.52;8.75;;;13.60;99.90;;;;;;5071611;28;20037;-82
2022/10/04 01:20:35;;;;;;;11.45;5.68;;;13.60;99.90;;;;;;5071920;28;20501;-82
2022/10/04 01:23:02;;;;;;;14.43;6.80;;;13.60;99.90;;;;;;5069973;28;20064;-82
2022/10/04 01:25:48;;;;;;;17.50;8.35;;;13.50;99.90;;;;;;5071658;28;20040;-82
2022/10/04 01:28:15;;;;;;;15.82;8.35;;;13.60;99.90;;;;;;5070788;28;20033;-82
2022/10/04 01:30:41;;;;;;;13.77;5.78;;;13.60;99.90;;;;;;5071195;28;20044;-82
2022/10/04 01:33:07;;;;;;;17.52;9.63;;;13.60;99.90;;;;;;5071475;28;20066;-82
2022/10/04 01:35:36;;;;;;;16.52;8.82;;;13.60;99.90;;;;;;5071322;28;20391;-82
2022/10/04 01:38:06;;;;;;;16.52;9.32;;;13.60;99.90;;;;;;5068960;28;20111;-82
2022/10/04 01:40:34;;;;;;;13.77;5.80;;;13.60;99.90;;;;;;5071152;28;20079;-82
2022/10/04 01:43:11;;;;;;;16.35;6.15;;;13.50;99.90;;;;;;5067970;28;20028;-82
2022/10/04 01:45:46;;;;;;;15.35;10.00;;;13.50;99.90;;;;;;5054022;28;20029;-82
2022/10/04 01:48:18;;;;;;;15.35;9.13;;;13.50;99.90;;;;;;5070979;28;20036;-82
2022/10/04 01:50:50;;;;;;;17.52;9.40;;;13.50;99.90;;;;;;5071168;28;20040;-81
2022/10/04 01:53:29;;;;;;;;;;;13.50;99.90;;;;;;5072012;28;20512;-82
2022/10/04 01:56:12;;;;;;;13.73;6.70;;;13.40;99.90;;;;;;5054632;28;19923;-82
2022/10/04 01:58:47;;;;;;;14.23;5.93;;;13.40;99.90;;;;;;5071584;28;20048;-82
2022/10/04 02:01:30;;;;;;;15.30;9.35;;;13.30;99.90;;;;;;5053994;28;20131;-82
2022/10/04 02:04:08;;;;;;;12.38;6.72;;;13.40;99.90;;;;;;5071227;28;20409;-82
2022/10/04 02:06:37;;;;;;;15.38;9.20;;;13.30;99.90;;;;;;5070417;28;20094;-81
2022/10/04 02:09:10;;;;;;;15.98;6.63;;;13.40;99.90;;;;;;5067513;28;20040;-82
2022/10/04 02:11:38;;;;;;;15.40;9.20;;;13.40;99.90;;;;;;5069727;28;20413;-82
2022/10/04 02:14:09;;;;;;;15.93;6.70;;;13.40;99.90;;;;;;5067286;28;20040;-82
2022/10/04 02:16:37;;;;;;;16.60;9.85;;;13.30;99.90;;;;;;5070495;28;20410;-82
2022/10/04 02:19:03;;;;;;;13.23;6.47;;;13.40;99.90;;;;;;5070760;28;20558;-82
2022/10/04 02:21:29;;;;;;;15.85;10.05;;;13.30;99.90;;;;;;5053878;28;20127;-82
2022/10/04 02:23:56;;;;;;;17.55;9.85;;;13.40;99.90;;;;;;5070476;28;20047;-81
2022/10/04 02:26:21;;;;;;;12.52;6.75;;;13.40;99.90;;;;;;5070682;28;20048;-82
2022/10/04 02:28:48;;;;;;;10.65;6.22;;;13.40;99.90;;;;;;5070682;28;20047;-82
2022/10/04 02:33:59;;;;;;;17.83;10.15;;;13.40;99.90;;;;;;5070727;28;20037;-82
2022/10/04 02:36:28;;;;;;;14.15;7.32;;;13.40;99.90;;;;;;5070483;28;20037;-82
2022/10/04 02:39:12;;;;;;;13.98;6.40;;;13.40;99.90;;;;;;5070478;28;20047;-82
2022/10/04 02:41:52;;;;;;;18.15;9.77;;;13.30;99.90;;;;;;5070443;28;20041;-82
2022/10/04 02:44:35;;;;;;;16.23;9.48;;;13.30;99.90;;;;;;5053709;28;20040;-82
2022/10/04 02:47:11;;;;;;;15.10;7.90;;;13.40;99.90;;;;;;5070388;28;20043;-82
2022/10/04 02:49:43;;;;;;;15.70;7.25;;;13.30;99.90;;;;;;5070473;28;20041;-82
2022/10/04 02:52:26;;;;;;;14.82;6.50;;;13.20;99.90;;;;;;5070070;28;20161;-82
2022/10/04 02:55:16;;;;;;;14.73;9.35;;;13.20;99.90;;;;;;5070728;28;20397;-82
2022/10/04 02:57:43;;;;;;;12.88;6.93;;;13.20;99.90;;;;;;5070386;28;20131;-82
2022/10/04 03:00:14;;;;;;;13.65;9.50;;;13.10;99.90;;;;;;5070252;28;20041;-82
2022/10/04 03:02:40;;;;;;;15.00;9.70;;;13.10;99.90;;;;;;5070362;28;20052;-82
2022/10/04 03:05:09;;;;;;;15.48;10.52;;;13.20;99.90;;;;;;5053557;28;20044;-82
2022/10/04 03:07:37;;;;;;;16.10;6.82;;;13.10;99.90;;;;;;5069889;28;20046;-82
2022/10/04 03:10:08;;;;;;;15.32;6.10;;;13.10;99.90;;;;;;5069964;28;20113;-82
2022/10/04 03:12:34;;;;;;;17.73;10.15;;;13.00;99.90;;;;;;5070064;28;20150;-82
2022/10/04 03:15:00;;;;;;;13.00;6.97;;;13.00;99.90;;;;;;5070194;28;20079;-82
2022/10/04 03:17:25;;;;;;;21.65;11.48;;;12.90;99.90;;;;;;5070219;28;20113;-82
2022/10/04 03:19:51;;;;;;;17.40;7.43;;;13.00;99.90;;;;;;5070106;28;20052;-82
2022/10/04 03:22:17;;;;;;;14.20;7.40;;;13.00;99.90;;;;;;5069479;28;20049;-82
2022/10/04 03:24:50;;;;;;;15.20;6.85;;;12.90;99.90;;;;;;5054898;28;20447;-82
2022/10/04 03:27:30;;;;;;;16.60;11.20;;;12.90;99.90;;;;;;5074182;28;20482;-82
2022/10/04 03:29:58;;;;;;;13.75;7.50;;;12.90;99.90;;;;;;5056944;28;20044;-82
2022/10/04 03:32:24;;;;;;;14.68;7.20;;;12.90;99.90;;;;;;5073807;28;20592;-82
2022/10/04 03:34:56;;;;;;;16.48;10.75;;;12.80;99.90;;;;;;5074367;28;20036;-82
2022/10/04 03:37:24;;;;;;;19.95;8.07;;;12.80;99.90;;;;;;5074160;28;20049;-82
2022/10/04 03:39:53;;;;;;;17.02;7.38;;;12.80;99.90;;;;;;5073226;28;20505;-82
2022/10/04 03:42:22;;;;;;;17.30;11.80;;;12.80;99.90;;;;;;5073761;28;20063;-82
2022/10/04 03:44:50;;;;;;;15.57;8.07;;;12.80;99.90;;;;;;5072609;28;20453;-82
2022/10/04 03:47:42;;;;;;;16.92;12.43;;;12.80;99.90;;;;;;5072294;28;20379;-82
2022/10/04 03:50:20;;;;;;;20.13;12.48;;;12.80;99.90;;;;;;5072049;28;20041;-82
2022/10/04 03:53:23;;;;;;;14.95;8.55;;;12.80;99.90;;;;;;5072310;28;20520;-82
2022/10/04 03:55:48;;;;;;;14.15;7.13;;;12.70;99.90;;;;;;5072626;28;20074;-82
2022/10/04 03:58:16;;;;;;;17.50;8.60;;;12.60;99.90;;;;;;5056232;28;20079;-82
2022/10/04 04:01:06;;;;;;;15.40;9.02;;;12.60;99.90;;;;;;5072986;28;20048;-82
2022/10/04 04:03:44;;;;;;;22.23;13.93;;;12.50;99.90;;;;;;5056603;28;20382;-82
2022/10/04 04:06:15;;;;;;;19.50;13.38;;;12.60;99.90;;;;;;5072981;28;20417;-82
2022/10/04 04:08:44;;;;;;;14.57;8.10;;;12.60;99.90;;;;;;5073243;28;20116;-82
2022/10/04 04:11:22;;;;;;;19.33;13.13;;;12.50;99.90;;;;;;5072655;28;20160;-82
2022/10/04 04:14:00;;;;;;;15.50;9.27;;;12.50;99.90;;;;;;5072464;28;20040;-82
2022/10/04 04:16:27;;;;;;;16.20;9.30;;;12.40;99.90;;;;;;5072769;28;20044;-82
2022/10/04 04:18:58;;;;;;;17.85;8.35;;;12.40;99.90;;;;;;5072471;28;20452;-82
2022/10/04 04:21:25;;;;;;;17.85;9.75;;;12.30;99.90;;;;;;5071942;28;20044;-82
2022/10/04 04:23:53;;;;;;;15.93;12.95;;;12.30;99.90;;;;;;5072567;28;20561;-82
2022/10/04 04:26:34;;;;;;;21.70;14.38;;;12.40;99.90;;;;;;5072997;28;20044;-82
2022/10/04 04:29:08;;;;;;;15.48;9.07;;;12.40;99.90;;;;;;5055801;28;20071;-82
2022/10/04 04:31:44;;;;;;;15.70;8.98;;;12.30;99.90;;;;;;5072849;28;20371;-82
2022/10/04 04:34:32;;;;;;;15.30;8.65;;;12.30;99.90;;;;;;5072776;28;20043;-82
2022/10/04 04:37:01;;;;;;;16.70;9.50;;;12.20;99.90;;;;;;5071997;28;20040;-82
2022/10/04 04:39:38;;;;;;;19.33;14.27;;;12.20;99.90;;;;;;5072353;28;20502;-82
2022/10/04 04:42:15;;;;;;;14.05;9.13;;;12.30;99.90;;;;;;5055761;28;20040;-82
2022/10/04 04:44:46;;;;;;;19.08;9.90;;;12.20;99.90;;;;;;5072579;28;20040;-82
2022/10/04 04:47:32;;;;;;;16.20;9.75;;;12.20;99.90;;;;;;5055444;28;20131;-82
2022/10/04 04:50:11;;;;;;;18.98;9.10;;;12.10;99.90;;;;;;5071666;28;20040;-82
2022/10/04 04:52:37;;;;;;;17.67;9.80;;;12.10;99.90;;;;;;5055643;28;20040;-82
2022/10/04 04:55:05;;;;;;;17.33;9.02;;;12.10;99.90;;;;;;5072857;28;20394;-82
2022/10/04 04:57:32;;;;;;;15.73;10.50;;;12.10;99.90;;;;;;5072558;28;20076;-82
2022/10/04 05:00:00;;;;;;;16.02;10.18;;;12.10;99.90;;;;;;5055780;28;20060;-82
2022/10/04 05:02:34;;;;;;;17.17;10.50;;;12.10;99.90;;;;;;5072031;28;20401;-82
2022/10/04 05:05:21;;;;;;;19.77;9.95;;;12.00;99.90;;;;;;5055124;28;20048;-82
2022/10/04 05:07:47;;;;;;;21.15;10.77;;;12.00;99.90;;;;;;5072517;28;20040;-82
2022/10/04 05:10:57;;;;;;;22.38;15.90;;;12.00;99.90;;;;;;5055144;28;20051;-82
2022/10/04 05:13:33;;;;;;;19.05;9.88;;;12.10;99.90;;;;;;5071679;28;20037;-82
2022/10/04 05:16:00;;;;;;;17.55;10.50;;;12.00;99.90;;;;;;5072417;28;20033;-82
2022/10/04 05:18:29;;;;;;;16.58;10.43;;;12.00;99.90;;;;;;5071901;28;20041;-82
2022/10/04 05:21:10;;;;;;;19.95;11.10;;;11.90;99.90;;;;;;5054381;28;20033;-82
2022/10/04 05:23:36;;;;;;;21.95;15.73;;;11.90;99.90;;;;;;5070957;28;20052;-81
2022/10/04 05:26:03;;;;;;;18.13;10.48;;;11.90;99.90;;;;;;5054182;28;20040;-82
2022/10/04 05:28:29;;;;;;;15.32;10.23;;;11.90;99.90;;;;;;5070213;28;20119;-82
2022/10/04 05:31:01;;;;;;;23.05;11.25;;;11.80;99.90;;;;;;5054256;28;20040;-81
2022/10/04 05:33:39;;;;;;;19.13;9.80;;;11.80;99.90;;;;;;5070292;28;20036;-81
2022/10/04 05:36:12;;;;;;;16.77;10.55;;;11.70;99.90;;;;;;5052791;28;20044;-81
2022/10/04 05:38:50;;;;;;;19.27;11.05;;;11.70;99.90;;;;;;5053202;28;20043;-81
2022/10/04 05:41:28;;;;;;;22.50;11.43;;;11.70;99.90;;;;;;5069381;28;20036;-81
2022/10/04 05:43:54;;;;;;;21.08;17.10;;;11.70;99.90;;;;;;5069987;28;20045;-81
2022/10/04 05:46:22;;;;;;;15.88;10.98;;;11.70;99.90;;;;;;5070370;28;20033;-82
2022/10/04 05:49:01;;;;;;;19.52;10.80;;;11.70;99.90;;;;;;5070211;28;20047;-81
2022/10/04 05:51:29;;;;;;;24.67;10.55;;;11.70;99.90;;;;;;5071168;28;20070;-82
2022/10/04 05:53:58;;;;;;;18.23;12.00;;;11.60;99.90;;;;;;5070374;28;20055;-82
2022/10/04 05:56:56;;;;;;;21.17;10.48;;;11.60;99.90;;;;;;5070501;28;20041;-81
2022/10/04 05:59:30;;;;;;;18.92;11.32;;;11.60;99.90;;;;;;5071212;28;20484;-81
2022/10/04 06:02:19;;;;;;;18.48;10.35;;;11.60;99.90;;;;;;5054231;28;20047;-82
2022/10/04 06:05:01;;;;;;;17.67;10.48;;;11.60;99.90;;;;;;5070340;28;20041;-82
2022/10/04 06:07:40;;;;;;;17.05;10.18;;;11.60;99.90;;;;;;5070854;28;20521;-82
2022/10/04 06:10:27;;;;;;;20.52;11.40;;;11.50;99.90;;;;;;5070585;28;20044;-81
2022/10/04 06:13:19;;;;;;;17.30;11.63;;;11.50;99.90;;;;;;5070736;28;20041;-81
2022/10/04 06:16:10;;;;;;;22.00;10.07;;;11.50;99.90;;;;;;5070805;28;20429;-82
2022/10/04 06:19:01;;;;;;;21.50;10.85;;;11.50;99.90;;;;;;5070639;28;20040;-82
2022/10/04 06:21:27;;;;;;;20.33;11.27;;;11.50;99.90;;;;;;5070883;28;20040;-82
2022/10/04 06:23:56;;;;;;;18.83;10.65;;;11.50;99.90;;;;;;5070550;28;20049;-82
2022/10/04 06:26:27;;;;;;;27.45;10.82;;;11.50;99.90;;;;;;5053485;28;20094;-82
2022/10/04 06:29:09;;;;;;;17.10;10.20;;;11.50;99.90;;;;;;5070634;28;20051;-82
2022/10/04 06:32:19;;;;;;;18.27;10.45;;;11.40;99.90;;;;;;5053753;28;20048;-82
2022/10/04 06:35:15;;;;;;;16.77;9.85;;;11.50;99.90;;;;;;5070388;28;20040;-82
2022/10/04 06:38:11;;;;;;;18.77;10.70;;;11.40;99.90;;;;;;5053326;28;20453;-82
2022/10/04 06:40:43;;;;;;;18.00;10.60;;;11.40;99.90;;;;;;5070457;28;20036;-82
2022/10/04 06:43:53;;;;;;;16.27;11.35;;;11.40;99.90;;;;;;5070139;28;20087;-82
2022/10/04 06:46:42;;;;;;;18.73;10.45;;;11.40;99.90;;;;;;5053320;28;20112;-81
2022/10/04 06:49:26;;;;;;;22.27;10.35;;;11.40;99.90;;;;;;5070047;28;20044;-82
2022/10/04 06:52:06;;;;;;;22.83;12.23;;;11.40;99.90;;;;;;5052528;28;20056;-81
2022/10/04 06:54:58;;;;;;;22.73;11.45;;;11.40;99.90;;;;;;5068171;28;20040;-82
2022/10/04 06:57:48;;;;;;;21.05;10.63;;;11.40;99.90;;;;;;5069703;28;20043;-81
2022/10/04 07:00:17;;;;;;;22.95;10.75;;;11.50;99.90;;;;;;5069343;28;20106;-81
2022/10/04 07:02:52;;;;;;;19.33;10.70;;;11.50;99.90;;;;;;5069565;28;20040;-82
2022/10/04 07:05:41;;;;;;;26.45;11.43;;;11.50;99.90;;;;;;5069980;28;20040;-82
2022/10/04 07:08:37;;;;;;;17.15;11.07;;;11.50;99.90;;;;;;5069115;28;20074;-82
2022/10/04 07:11:22;;;;;;;18.20;11.80;;;11.50;99.90;;;;;;5068861;28;20041;-82
2022/10/04 07:14:02;;;;;;;22.55;12.45;;;11.50;99.90;;;;;;5052788;28;20048;-82
2022/10/04 07:16:46;;;;;;;22.30;11.95;;;11.60;99.90;;;;;;5053321;28;20517;-82
2022/10/04 07:19:33;;;;;;;16.83;11.65;;;11.60;99.90;;;;;;5069406;28;20569;-82
2022/10/04 07:22:05;;;;;;;20.15;11.65;;;11.70;99.90;;;;;;5069284;28;20051;-82
2022/10/04 07:24:36;;;;;;;19.35;11.50;;;11.70;99.90;;;;;;5069427;28;20051;-82
2022/10/04 07:27:06;;;;;;;22.80;17.40;;;11.80;99.90;;;;;;5069271;28;20135;-82
2022/10/04 07:29:38;;;;;;;17.67;12.55;;;12.00;99.90;;;;;;5052113;28;20044;-82
2022/10/04 07:32:04;;;;;;;18.77;12.10;;;12.10;99.90;;;;;;5068879;28;20051;-82
2022/10/04 07:34:36;;;;;;;23.67;11.88;;;12.10;99.90;;;;;;5069443;28;20401;-82
2022/10/04 07:37:09;;;;;;;20.88;16.33;;;12.10;99.90;;;;;;5069183;28;20072;-82
2022/10/04 07:39:51;;;;;;;21.45;11.00;;;12.30;99.90;;;;;;5069357;28;20037;-82
2022/10/04 07:42:26;;;;;;;17.00;9.85;;;12.30;99.90;;;;;;5069000;28;20170;-82
2022/10/04 07:45:10;;;;;;;29.67;10.80;;;12.30;99.90;;;;;;5069333;28;20052;-82
2022/10/04 07:47:36;;;;;;;18.38;14.60;;;12.40;99.90;;;;;;5051996;28;20082;-82
2022/10/04 07:50:27;;;;;;;20.17;10.52;;;12.50;99.90;;;;;;5068479;28;20696;-82
2022/10/04 07:53:11;;;;;;;18.05;10.00;;;12.50;99.90;;;;;;5051538;28;20093;-82
2022/10/04 07:55:49;;;;;;;17.83;9.57;;;12.40;99.90;;;;;;5067040;28;20086;-89
2022/10/04 07:58:33;;;;;;;16.52;9.57;;;12.40;99.90;;;;;;5052663;28;20509;-89
2022/10/04 08:01:38;;;;;;;19.40;9.73;;;12.50;99.90;;;;;;5052404;28;20033;-89
2022/10/04 08:04:44;;;;;;;16.80;13.23;;;12.50;99.90;;;;;;5069401;28;20492;-89
2022/10/04 08:07:54;;;;;;;19.13;8.90;;;12.50;99.90;;;;;;5065536;28;20552;-89
2022/10/04 08:10:50;;;;;;;15.70;9.13;;;12.60;99.90;;;;;;5068327;28;20097;-89
2022/10/04 08:13:47;;;;;;;16.38;9.65;;;12.60;99.90;;;;;;5072535;28;20052;-89
2022/10/04 08:16:24;;;;;;;14.13;8.88;;;12.70;99.90;;;;;;5047869;28;20480;-89
2022/10/04 08:19:18;;;;;;;15.30;11.57;;;12.80;99.90;;;;;;5071846;28;20044;-89
2022/10/04 08:21:59;;;;;;;17.88;8.68;;;13.00;99.90;;;;;;5045157;28;20052;-89
2022/10/04 08:25:03;;;;;;;14.60;7.70;;;13.10;99.90;;;;;;5072409;28;20076;-89
2022/10/04 08:30:53;;;;;;;13.07;7.97;;;13.20;99.90;;;;;;5072605;28;20513;-89
2022/10/04 08:33:56;;;;;;;15.32;10.02;;;13.30;99.90;;;;;;5055745;28;20048;-89
2022/10/04 08:36:46;;;;;;;16.52;8.90;;;13.50;99.90;;;;;;5072453;28;20052;-89
2022/10/04 08:39:36;;;;;;;16.33;11.23;;;13.50;99.90;;;;;;5071859;28;20121;-89
2022/10/04 08:42:42;;;;;;;15.60;8.75;;;13.60;99.90;;;;;;5072007;28;20040;-89
2022/10/04 08:45:20;;;;;;;17.25;10.98;;;13.50;99.90;;;;;;5072383;28;20037;-90
2022/10/04 08:48:02;;;;;;;16.63;8.80;;;13.50;99.90;;;;;;5071528;28;20452;-89
2022/10/04 08:51:02;;;;;;;15.33;7.20;;;13.50;99.90;;;;;;5054319;28;20411;-89
2022/10/04 08:54:06;;;;;;;14.55;8.10;;;13.50;99.90;;;;;;5071625;28;20044;-89
2022/10/04 08:57:11;;;;;;;14.48;8.75;;;13.50;99.90;;;;;;5072124;28;20036;-89
2022/10/04 09:00:03;;;;;;;19.75;11.20;;;13.60;99.90;;;;;;5013967;28;20145;-89
2022/10/04 09:03:03;;;;;;;12.65;7.80;;;13.60;99.90;;;;;;5070953;28;20102;-89
2022/10/04 09:05:50;;;;;;;15.52;10.73;;;13.70;99.90;;;;;;5071689;28;20045;-89
2022/10/04 09:08:43;;;;;;;13.63;7.25;;;13.80;99.90;;;;;;5069521;28;20433;-89
2022/10/04 09:11:20;;;;;;;13.13;6.05;;;13.80;99.90;;;;;;5071283;28;20123;-89
2022/10/04 09:13:57;;;;;;;13.57;8.50;;;13.90;99.90;;;;;;5071726;28;20037;-89
2022/10/04 09:16:56;;;;;;;16.83;8.63;;;14.00;99.90;;;;;;5071083;28;20555;-89
2022/10/04 09:19:52;;;;;;;14.98;7.20;;;14.00;99.90;;;;;;5071707;28;20060;-89
2022/10/04 09:22:36;;;;;;;16.75;10.05;;;14.10;99.90;;;;;;5068846;28;20040;-89
2022/10/04 09:25:35;;;;;;;14.32;7.47;;;14.20;99.90;;;;;;5071786;28;20562;-89
2022/10/04 09:28:37;;;;;;;14.60;7.35;;;14.30;99.90;;;;;;5051181;28;20080;-89
2022/10/04 09:31:24;;;;;;;15.15;9.77;;;14.30;99.90;;;;;;5020876;28;20049;-89
2022/10/04 09:34:25;;;;;;;15.73;8.40;;;14.50;99.90;;;;;;5035033;28;20403;-89
2022/10/04 09:37:20;;;;;;;13.55;7.88;;;14.50;99.90;;;;;;5051982;28;20056;-88
2022/10/04 09:40:28;;;;;;;18.83;11.77;;;14.60;99.90;;;;;;5038334;28;20056;-89
2022/10/04 09:43:08;;;;;;;15.05;9.15;;;14.70;99.90;;;;;;5060582;28;20446;-89
2022/10/04 09:46:06;;;;;;;14.10;7.60;;;14.80;99.90;;;;;;5054351;28;20044;-88
2022/10/04 09:49:02;;;;;;;20.95;10.88;;;14.80;99.90;;;;;;5054309;28;20051;-89
2022/10/04 09:51:33;;;;;;;16.23;10.80;;;14.90;99.90;;;;;;5053996;28;20052;-89
2022/10/04 09:54:22;;;;;;;16.70;7.78;;;15.00;99.90;;;;;;5052972;28;20507;-89
2022/10/04 09:56:56;;;;;;;17.05;9.80;;;15.00;99.90;;;;;;5052476;28;20043;-89
2022/10/04 09:59:41;;;;;;;16.77;8.80;;;15.10;99.90;;;;;;5069044;28;20052;-89
2022/10/04 10:02:27;;;;;;;16.88;9.32;;;15.20;99.90;;;;;;5069865;28;20076;-89
2022/10/04 10:05:13;;;;;;;15.88;8.93;;;15.30;99.90;;;;;;5053933;28;20040;-88
2022/10/04 10:08:03;;;;;;;14.65;9.02;;;15.40;99.90;;;;;;5070819;28;20102;-89
2022/10/04 10:13:50;;;;;;;13.45;8.20;;;15.60;99.90;;;;;;5070130;28;20041;-89
2022/10/04 10:16:47;;;;;;;15.15;7.72;;;15.60;99.90;;;;;;5053985;28;20513;-90
2022/10/04 10:19:56;;;;;;;12.13;6.30;;;15.70;99.90;;;;;;5070327;28;20045;-89
2022/10/04 10:22:41;;;;;;;12.82;8.35;;;15.70;99.90;;;;;;5069810;28;20075;-90
2022/10/04 10:25:37;;;;;;;15.07;7.57;;;15.80;99.90;;;;;;5070128;28;20059;-89
2022/10/04 10:28:24;;;;;;;11.70;6.05;;;15.90;99.90;;;;;;5053294;28;20044;-89
2022/10/04 10:31:14;;;;;;;13.02;6.80;;;15.90;99.90;;;;;;5069096;28;20040;-90
2022/10/04 10:34:25;;;;;;;14.32;7.82;;;16.00;99.90;;;;;;5069748;28;20531;-89
2022/10/04 10:36:59;;;;;;;13.82;6.57;;;16.10;99.90;;;;;;5030404;28;20119;-89
2022/10/04 10:39:52;;;;;;;13.95;7.28;;;16.20;99.90;;;;;;5052611;28;20043;-90
2022/10/04 10:42:48;;;;;;;15.70;8.38;;;16.30;99.90;;;;;;5069884;28;20075;-89
2022/10/04 10:45:28;;;;;;;13.05;6.88;;;16.40;99.90;;;;;;5053876;28;20048;-89
2022/10/04 10:48:00;;;;;;;13.52;7.20;;;16.50;99.90;;;;;;5070263;28;20044;-90
2022/10/04 10:51:05;;;;;;;14.13;6.60;;;16.50;99.90;;;;;;5069696;28;20048;-89
2022/10/04 10:54:04;;;;;;;15.13;6.57;;;16.60;99.90;;;;;;5030634;28;20074;-89
2022/10/04 10:56:42;;;;;;;13.65;6.55;;;16.60;99.90;;;;;;5070170;28;20124;-89
2022/10/04 10:59:29;;;;;;;14.95;7.35;;;16.60;99.90;;;;;;5070509;28;20122;-89
2022/10/04 11:02:11;;;;;;;10.32;6.30;;;16.60;99.90;;;;;;5069543;28;20047;-89
2022/10/04 11:04:53;;;;;;;13.07;6.65;;;16.70;99.90;;;;;;5053383;28;20048;-89
2022/10/04 11:07:37;;;;;;;11.25;5.57;;;16.80;99.90;;;;;;5069648;28;20587;-89
2022/10/04 11:10:15;;;;;;;14.63;7.32;;;16.80;99.90;;;;;;5053031;28;20126;-89
2022/10/04 11:13:06;;;;;;;14.02;6.72;;;16.90;99.90;;;;;;5052187;28;20075;-89
2022/10/04 11:15:56;;;;;;;14.15;7.05;;;16.90;99.90;;;;;;5061685;28;20044;-89
2022/10/04 11:18:44;;;;;;;13.57;6.93;;;17.00;99.90;;;;;;5067709;28;20044;-89
2022/10/04 11:21:27;;;;;;;13.18;6.60;;;17.10;99.90;;;;;;5052933;28;20119;-90
2022/10/04 11:24:02;;;;;;;14.75;6.60;;;17.10;99.90;;;;;;5069727;28;20091;-90
2022/10/04 11:26:39;;;;;;;11.95;5.55;;;17.20;99.90;;;;;;5069755;28;20105;-90
2022/10/04 11:29:31;;;;;;;11.57;5.35;;;17.20;99.90;;;;;;5069762;28;20045;-89
2022/10/04 11:32:00;;;;;;;14.05;4.55;;;17.30;99.90;;;;;;5066415;28;20154;-90
2022/10/04 11:34:47;;;;;;;11.02;5.07;;;17.20;99.90;;;;;;5067868;28;20039;-89
2022/10/04 11:37:15;;;;;;;11.85;5.13;;;17.30;99.90;;;;;;5069203;28;20429;-89
2022/10/04 11:40:19;;;;;;;12.80;5.30;;;17.30;99.90;;;;;;5069630;28;20049;-90
2022/10/04 11:43:23;;;;;;;12.38;4.82;;;17.30;99.90;;;;;;5022724;28;20044;-89
2022/10/04 11:46:32;;;;;;;12.75;5.40;;;17.40;99.90;;;;;;4984174;28;20076;-89
2022/10/04 11:49:16;;;;;;;9.30;4.20;;;17.50;99.90;;;;;;5073211;28;20052;-89
2022/10/04 11:52:03;;;;;;;12.45;4.85;;;17.60;99.90;;;;;;5073102;28;20128;-90
2022/10/04 11:54:55;;;;;;;10.75;4.90;;;17.70;99.90;;;;;;5073827;28;20050;-90
2022/10/04 11:57:50;;;;;;;11.00;5.03;;;17.80;99.90;;;;;;5057040;28;20037;-90
2022/10/04 12:00:24;;;;;;;12.65;5.65;;;17.80;99.90;;;;;;5056104;28;20043;-90
2022/10/04 12:03:29;;;;;;;11.75;5.07;;;17.90;99.90;;;;;;5056624;28;20036;-90
2022/10/04 12:06:07;;;;;;;10.63;5.05;;;17.90;99.90;;;;;;5073285;28;20044;-89
2022/10/04 12:08:46;;;;;;;10.98;4.78;;;18.00;99.90;;;;;;5056595;28;20402;-88
2022/10/04 12:14:41;;;;;;;12.38;5.35;;;18.10;99.90;;;;;;5073134;28;20048;-89
2022/10/04 12:17:10;;;;;;;10.25;4.47;;;18.00;99.90;;;;;;5072973;28;20042;-90
2022/10/04 12:20:16;;;;;;;10.98;5.28;;;18.00;99.90;;;;;;5073066;28;20387;-90
2022/10/04 12:22:56;;;;;;;10.77;5.32;;;18.20;99.90;;;;;;5072211;28;20051;-90
2022/10/04 12:25:55;;;;;;;12.68;5.35;;;18.30;99.90;;;;;;5056511;28;20048;-90
2022/10/04 12:29:03;;;;;;;12.02;5.45;;;18.40;99.90;;;;;;5073154;28;20550;-89
2022/10/04 12:31:41;;;;;;;9.88;5.15;;;18.30;99.90;;;;;;5072213;28;20131;-89
2022/10/04 12:34:13;;;;;;;12.65;5.90;;;18.30;99.90;;;;;;5072936;28;20571;-89
2022/10/04 12:37:00;;;;;;;11.82;5.22;;;18.50;99.90;;;;;;5056055;28;20044;-89
2022/10/04 12:39:53;;;;;;;11.52;5.88;;;18.60;99.90;;;;;;5054043;28;20045;-89
2022/10/04 12:42:34;;;;;;;10.82;6.38;;;18.60;99.90;;;;;;5072276;28;20040;-89
2022/10/04 12:45:14;;;;;;;11.18;5.75;;;18.70;99.90;;;;;;5071622;28;20498;-89
2022/10/04 12:48:19;;;;;;;14.35;6.40;;;18.80;99.90;;;;;;5071140;28;20047;-89
2022/10/04 12:50:55;;;;;;;12.65;5.93;;;19.00;99.90;;;;;;5054502;28;20091;-89
2022/10/04 12:53:35;;;;;;;13.18;6.05;;;19.10;99.90;;;;;;5072303;28;20037;-89
2022/10/04 12:56:21;;;;;;;11.75;6.13;;;19.30;99.90;;;;;;5073223;28;20444;-89
2022/10/04 12:59:09;;;;;;;12.48;5.60;;;19.40;99.50;;;;;;5071287;28;20041;-89
2022/10/04 13:02:00;;;;;;;11.05;5.85;;;19.70;97.90;;;;;;5071875;28;20133;-89
2022/10/04 13:04:44;;;;;;;9.48;5.25;;;20.30;96.00;;;;;;5071940;28;20131;-89
2022/10/04 13:07:33;;;;;;;10.70;5.45;;;21.30;91.20;;;;;;5071224;28;20039;-89
2022/10/04 13:10:16;;;;;;;11.35;5.88;;;22.40;89.80;;;;;;5069049;28;20051;-90
2022/10/04 13:13:19;;;;;;;12.52;5.28;;;23.50;73.70;;;;;;5069144;28;20133;-90
2022/10/04 13:16:11;;;;;;;10.02;5.20;;;24.40;68.70;;;;;;5071817;28;20032;-90
2022/10/04 13:19:16;;;;;;;13.05;5.43;;;24.80;67.30;;;;;;4997612;28;20087;-89
2022/10/04 13:22:01;;;;;;;11.15;4.40;;;24.90;66.60;;;;;;5011878;28;20593;-89
2022/10/04 13:24:56;;;;;;;10.55;5.03;;;25.30;63.40;;;;;;5013535;28;20049;-90
2022/10/04 13:28:01;;;;;;;9.98;4.47;;;25.50;62.40;;;;;;5014319;28;20138;-90
2022/10/04 13:30:56;;;;;;;10.25;4.90;;;25.90;60.20;;;;;;5000425;28;20054;-90
2022/10/04 13:33:34;;;;;;;8.15;4.28;;;26.10;56.50;;;;;;5005361;28;20061;-90
2022/10/04 13:36:00;;;;;;;12.98;4.80;;;25.20;55.30;;;;;;5013835;28;20136;-90
2022/10/04 13:38:37;;;;;;;19.00;4.90;;;23.90;57.60;;;;;;5013611;28;20132;-89
2022/10/04 13:41:36;;;;;;;9.82;5.00;;;22.80;59.10;;;;;;5002799;28;20136;-90
2022/10/04 13:44:10;;;;;;;12.63;5.25;;;21.70;62.10;;;;;;5010433;28;20038;-89
2022/10/04 13:46:43;;;;;;;12.13;5.38;;;21.00;66.50;;;;;;5011868;28;20037;-90
2022/10/04 13:49:09;;;;;;;10.95;5.25;;;20.60;69.50;;;;;;5011049;28;20132;-90
2022/10/04 13:51:45;;;;;;;10.68;5.05;;;20.20;73.70;;;;;;5013568;28;20124;-90
2022/10/04 13:57:36;;;;;;;10.48;5.10;;;20.30;81.40;;;;;;5070647;28;20049;-90
2022/10/04 14:00:19;;;;;;;9.90;5.05;;;21.00;75.80;;;;;;5068983;28;20072;-90